Terminal Aerodrome Forecast
Issued by NWS Cleveland, OH

Home | Current Version | Previous Version | Graphics & Text | Print | Product List | Glossary On
Versions: 1 2 3 4 5 6 7 8 9 10 11 12 13 14 15 16 17 18 19 20 21
583
FTUS41 KCLE 251735
TAFMFD
TAF
KMFD 251735Z 2518/2618 01006KT P6SM BKN030
     FM251900 01007KT P6SM BKN035
     FM252200 VRB04KT P6SM SCT040
     FM261100 VRB03KT 5SM BR SKC
     FM261300 17006KT P6SM SKC=

USA.gov is the U.S. government's official web portal to all federal, state and local government web resources and services.